Time;durP1;ratioP1;P1;durP2;ratioP2;P2;SDS_P1;SDS_P2;PMS_P1;PMS_P2;Temp;Humidity;BMP_temperature;BMP_pressure;BME280_temperature;BME280_humidity;BME280_pressure;Samples;Min_cycle;Max_cycle;Signal;HPM_P1;HPM_P2
2021/11/01 00:00:37;;;;;;;;;;;12.40;95.70;;;;;;4345454;33;42015;-76
2021/11/01 00:03:10;;;;;;;;;;;12.40;95.70;;;;;;4333331;33;25880;-76
2021/11/01 00:05:44;;;;;;;;;;;12.40;95.60;;;;;;4333319;33;32173;-75
2021/11/01 00:08:16;;;;;;;;;;;12.40;95.70;;;;;;4345930;33;28513;-76
2021/11/01 00:10:56;;;;;;;;;;;12.40;95.60;;;;;;4334333;33;20002;-75
2021/11/01 00:13:31;;;;;;;;;;;12.30;95.60;;;;;;4345869;33;34718;-75
2021/11/01 00:16:06;;;;;;;;;;;12.30;95.60;;;;;;4333055;33;46780;-76
2021/11/01 00:18:41;;;;;;;;;;;12.30;95.60;;;;;;4346644;33;20015;-75
2021/11/01 00:21:14;;;;;;;;;;;12.30;95.60;;;;;;4346480;33;39639;-76
2021/11/01 00:23:50;;;;;;;;;;;12.20;95.60;;;;;;4333571;33;21383;-76
2021/11/01 00:26:26;;;;;;;;;;;12.20;95.70;;;;;;4346659;33;20008;-75
2021/11/01 00:29:03;;;;;;;;;;;12.20;95.70;;;;;;4345811;33;20013;-75
2021/11/01 00:31:34;;;;;;;;;;;12.20;95.60;;;;;;4345456;33;31603;-76
2021/11/01 00:34:09;;;;;;;;;;;12.20;95.60;;;;;;4345300;33;34228;-76
2021/11/01 00:36:44;;;;;;;;;;;12.20;95.60;;;;;;4345734;33;20025;-75
2021/11/01 00:39:17;;;;;;;;;;;12.20;95.60;;;;;;4332801;33;37813;-75
2021/11/01 00:41:52;;;;;;;;;;;12.20;95.70;;;;;;4346097;33;20005;-75
2021/11/01 00:44:25;;;;;;;;;;;12.20;95.70;;;;;;4345120;33;40154;-75
2021/11/01 00:46:58;;;;;;;;;;;12.20;95.70;;;;;;4345615;33;19993;-75
2021/11/01 00:49:33;;;;;;;;;;;12.20;95.80;;;;;;4347403;33;20001;-76
2021/11/01 00:52:09;;;;;;;;;;;12.20;95.80;;;;;;4345223;33;33009;-75
2021/11/01 00:54:45;;;;;;;;;;;12.10;95.80;;;;;;4347235;33;20043;-75
2021/11/01 00:57:18;;;;;;;;;;;12.10;95.80;;;;;;4345787;33;20397;-75
2021/11/01 00:59:58;;;;;;;;;;;12.10;96.10;;;;;;4332686;33;21646;-75
2021/11/01 01:02:32;;;;;;;;;;;12.10;95.80;;;;;;4333385;33;20390;-75
2021/11/01 01:05:06;;;;;;;;;;;12.10;95.80;;;;;;4332679;33;27874;-76
2021/11/01 01:07:39;;;;;;;;;;;12.10;95.80;;;;;;4332840;33;20806;-75
2021/11/01 01:10:14;;;;;;;;;;;12.10;95.90;;;;;;4332199;33;44707;-76
2021/11/01 01:12:47;;;;;;;;;;;12.10;95.90;;;;;;4333077;33;20012;-75
2021/11/01 01:15:28;;;;;;;;;;;12.10;95.90;;;;;;4333209;33;20008;-76
2021/11/01 01:18:11;;;;;;;;;;;12.10;95.90;;;;;;4345383;33;20029;-75
2021/11/01 01:20:49;;;;;;;;;;;12.10;95.90;;;;;;4333003;33;20005;-75
2021/11/01 01:23:25;;;;;;;;;;;12.00;95.90;;;;;;4345275;33;19997;-75
2021/11/01 01:26:04;;;;;;;;;;;12.00;95.90;;;;;;4345840;33;20020;-75
2021/11/01 01:28:40;;;;;;;;;;;12.00;95.90;;;;;;4332170;33;28091;-75
2021/11/01 01:31:15;;;;;;;;;;;12.00;95.90;;;;;;4332629;33;25540;-76
2021/11/01 01:33:45;;;;;;;;;;;12.00;96.30;;;;;;4332980;33;20001;-76
2021/11/01 01:36:21;;;;;;;;;;;12.00;95.90;;;;;;4333099;33;20009;-75
2021/11/01 01:38:54;;;;;;;;;;;12.00;96.00;;;;;;4345622;33;20040;-76
2021/11/01 01:41:32;;;;;;;;;;;12.00;96.00;;;;;;4344826;33;27433;-75
2021/11/01 01:44:05;;;;;;;;;;;11.90;96.00;;;;;;4331702;33;44161;-75
2021/11/01 01:46:38;;;;;;;;;;;11.90;96.00;;;;;;4344963;33;22132;-75
2021/11/01 01:49:13;;;;;;;;;;;11.90;96.00;;;;;;4331795;33;34734;-75
2021/11/01 01:51:48;;;;;;;;;;;11.90;96.00;;;;;;4344595;33;35274;-75
2021/11/01 01:54:23;;;;;;;;;;;11.90;96.00;;;;;;4332294;33;37209;-76
2021/11/01 01:56:58;;;;;;;;;;;11.90;96.00;;;;;;4344787;33;29594;-76
2021/11/01 01:59:31;;;;;;;;;;;11.90;96.00;;;;;;4345276;33;20009;-75
2021/11/01 02:02:04;;;;;;;;;;;11.90;96.10;;;;;;4326483;33;36724;-76
2021/11/01 02:04:42;;;;;;;;;;;11.90;96.10;;;;;;4340136;33;20017;-76
2021/11/01 02:07:33;;;;;;;;;;;11.80;96.10;;;;;;4315957;33;43681;-75
2021/11/01 02:10:17;;;;;;;;;;;11.80;96.00;;;;;;4339946;33;21142;-76
2021/11/01 02:12:53;;;;;;;;;;;11.90;96.00;;;;;;4343703;33;20050;-75
2021/11/01 02:15:32;;;;;;;;;;;11.90;96.00;;;;;;4318564;33;20537;-75
2021/11/01 02:18:11;;;;;;;;;;;11.90;96.00;;;;;;4343675;33;20113;-75
2021/11/01 02:20:53;;;;;;;;;;;11.90;96.00;;;;;;4318502;33;20390;-75
2021/11/01 02:23:37;;;;;;;;;;;11.90;96.00;;;;;;4342780;33;20487;-75
2021/11/01 02:26:12;;;;;;;;;;;11.90;96.00;;;;;;4343038;33;20004;-75
2021/11/01 02:28:47;;;;;;;;;;;11.90;96.30;;;;;;4317637;33;31953;-75
2021/11/01 02:31:21;;;;;;;;;;;11.90;96.00;;;;;;4329076;33;46492;-75
2021/11/01 02:33:57;;;;;;;;;;;11.80;96.00;;;;;;4317458;33;33757;-75
2021/11/01 02:36:35;;;;;;;;;;;11.80;96.00;;;;;;4330671;33;20006;-75
2021/11/01 02:39:08;;;;;;;;;;;11.80;96.00;;;;;;4341765;33;47214;-76
2021/11/01 02:41:44;;;;;;;;;;;11.80;96.00;;;;;;4329170;33;32483;-75
2021/11/01 02:44:22;;;;;;;;;;;11.80;96.00;;;;;;4342261;33;20572;-75
2021/11/01 02:46:57;;;;;;;;;;;11.80;96.00;;;;;;4329524;33;25286;-74
2021/11/01 02:49:30;;;;;;;;;;;11.70;96.00;;;;;;4317805;33;20041;-75
2021/11/01 02:52:03;;;;;;;;;;;11.80;96.00;;;;;;4317837;33;19998;-76
2021/11/01 02:54:38;;;;;;;;;;;11.80;96.00;;;;;;4329658;33;27866;-76
2021/11/01 02:57:11;;;;;;;;;;;11.80;96.00;;;;;;4342567;33;20062;-75
2021/11/01 02:59:44;;;;;;;;;;;11.70;95.90;;;;;;4342616;33;20359;-75
2021/11/01 03:02:20;;;;;;;;;;;11.70;95.90;;;;;;4342217;33;20022;-76
2021/11/01 03:04:53;;;;;;;;;;;11.70;95.90;;;;;;4342494;33;20069;-76
2021/11/01 03:07:26;;;;;;;;;;;11.70;95.90;;;;;;4342462;33;20137;-74
2021/11/01 03:10:01;;;;;;;;;;;11.60;95.90;;;;;;4316852;33;43153;-75
2021/11/01 03:12:35;;;;;;;;;;;11.60;95.90;;;;;;4318067;33;32845;-75
2021/11/01 03:15:08;;;;;;;;;;;11.60;95.90;;;;;;4341917;33;20392;-75
2021/11/01 03:17:47;;;;;;;;;;;11.50;95.90;;;;;;4342531;33;20017;-75
2021/11/01 03:20:26;;;;;;;;;;;11.50;95.90;;;;;;4317991;33;20056;-75
2021/11/01 03:23:13;;;;;;;;;;;11.50;95.80;;;;;;4341578;33;20058;-75
2021/11/01 03:25:51;;;;;;;;;;;11.50;95.80;;;;;;4330283;33;20089;-76
2021/11/01 03:28:30;;;;;;;;;;;11.50;95.80;;;;;;4342612;33;20446;-75
2021/11/01 03:31:06;;;;;;;;;;;11.40;95.80;;;;;;4318820;33;20014;-75
2021/11/01 03:33:44;;;;;;;;;;;11.50;95.90;;;;;;4329963;33;20033;-75
2021/11/01 03:36:17;;;;;;;;;;;11.50;95.80;;;;;;4341854;33;20400;-76
2021/11/01 03:38:53;;;;;;;;;;;11.50;95.80;;;;;;4316917;33;23792;-76
2021/11/01 03:41:30;;;;;;;;;;;11.40;95.80;;;;;;4330133;33;20117;-75
2021/11/01 03:44:07;;;;;;;;;;;11.40;95.70;;;;;;4341447;33;20024;-75
2021/11/01 03:46:41;;;;;;;;;;;11.40;95.80;;;;;;4317577;33;20460;-75
2021/11/01 03:49:16;;;;;;;;;;;11.40;95.70;;;;;;4329624;33;19998;-75
2021/11/01 03:51:53;;;;;;;;;;;11.40;95.70;;;;;;4340780;33;32900;-75
2021/11/01 03:54:32;;;;;;;;;;;11.40;95.70;;;;;;4341541;33;20013;-74
2021/11/01 03:57:08;;;;;;;;;;;11.40;95.70;;;;;;4318064;33;20229;-75
2021/11/01 03:59:41;;;;;;;;;;;11.30;95.70;;;;;;4328206;33;38147;-75
2021/11/01 04:02:20;;;;;;;;;;;11.30;95.70;;;;;;4321195;33;20013;-76
2021/11/01 04:04:53;;;;;;;;;;;11.30;95.70;;;;;;4330998;33;35945;-75
2021/11/01 04:07:28;;;;;;;;;;;11.30;95.70;;;;;;4344187;33;20110;-75
2021/11/01 04:10:02;;;;;;;;;;;11.20;95.70;;;;;;4344251;33;20009;-74
2021/11/01 04:12:35;;;;;;;;;;;11.20;95.70;;;;;;4330592;33;36431;-75
2021/11/01 04:15:23;;;;;;;;;;;11.20;95.70;;;;;;4344021;33;20013;-75
2021/11/01 04:17:58;;;;;;;;;;;11.20;95.80;;;;;;4330573;33;43700;-75
2021/11/01 04:20:49;;;;;;;;;;;11.20;95.80;;;;;;4331390;33;20008;-75
2021/11/01 04:23:21;;;;;;;;;;;11.20;95.70;;;;;;4343922;33;20017;-75
2021/11/01 04:25:56;;;;;;;;;;;11.20;95.70;;;;;;4342514;33;40777;-75
2021/11/01 04:28:30;;;;;;;;;;;11.20;95.70;;;;;;4331061;33;20005;-75
2021/11/01 04:31:10;;;;;;;;;;;11.20;95.70;;;;;;4343349;33;25889;-75
2021/11/01 04:33:45;;;;;;;;;;;11.20;95.70;;;;;;4330852;33;20009;-75
2021/11/01 04:36:20;;;;;;;;;;;11.10;95.70;;;;;;4331402;33;33146;-75
2021/11/01 04:39:09;;;;;;;;;;;11.10;95.70;;;;;;4330935;33;20898;-75
2021/11/01 04:41:53;;;;;;;;;;;11.10;95.70;;;;;;4343182;33;20861;-75
2021/11/01 04:53:26;;;;;;;;;;;11.10;95.70;;;;;;4326047;33;38426;-76
2021/11/01 04:55:59;;;;;;;;;;;11.10;95.60;;;;;;4331158;33;20012;-75
2021/11/01 04:58:33;;;;;;;;;;;11.10;95.60;;;;;;4342600;33;38271;-74
2021/11/01 05:01:09;;;;;;;;;;;11.10;95.60;;;;;;4330235;33;35497;-75
2021/11/01 05:03:43;;;;;;;;;;;11.10;95.60;;;;;;4342493;33;20084;-75
2021/11/01 05:06:23;;;;;;;;;;;11.00;95.60;;;;;;4343585;33;20016;-75
2021/11/01 05:09:06;;;;;;;;;;;11.00;95.60;;;;;;4332494;33;20016;-76
2021/11/01 05:11:58;;;;;;;;;;;11.00;95.60;;;;;;4330671;33;20006;-75
2021/11/01 05:17:31;;;;;;;;;;;11.00;95.60;;;;;;4331738;33;20060;-75
2021/11/01 05:20:50;;;;;;;;;;;11.10;95.60;;;;;;4329803;33;31602;-75
2021/11/01 05:25:40;;;;;;;;;;;11.10;95.50;;;;;;4342869;33;19997;-76
2021/11/01 05:31:06;;;;;;;;;;;11.10;95.50;;;;;;4331721;33;20002;-75
2021/11/01 05:36:20;;;;;;;;;;;11.00;95.40;;;;;;4342630;33;20549;-75
2021/11/01 05:38:50;;;;;;;;;;;11.10;95.50;;;;;;4330699;33;20050;-75
2021/11/01 05:41:29;;;;;;;;;;;11.00;95.40;;;;;;4342834;33;20395;-75
2021/11/01 05:44:02;;;;;;;;;;;11.00;95.50;;;;;;4329467;33;40524;-74
2021/11/01 05:46:43;;;;;;;;;;;11.00;95.50;;;;;;4333317;33;20013;-75
2021/11/01 05:49:21;;;;;;;;;;;11.00;95.50;;;;;;4346270;33;20017;-75
2021/11/01 05:51:57;;;;;;;;;;;10.90;95.50;;;;;;4333400;33;20021;-75
2021/11/01 05:54:31;;;;;;;;;;;10.90;95.50;;;;;;4334259;33;31497;-75
2021/11/01 06:02:50;;;;;;;;;;;10.80;95.50;;;;;;4343065;33;20085;-75
2021/11/01 06:16:00;;;;;;;;;;;10.70;95.70;;;;;;4318620;33;20057;-75
2021/11/01 06:18:37;;;;;;;;;;;10.70;95.70;;;;;;4331052;33;20053;-76
2021/11/01 06:21:18;;;;;;;;;;;10.80;95.70;;;;;;4330037;33;35199;-75
2021/11/01 06:24:01;;;;;;;;;;;10.70;95.60;;;;;;4318357;33;20415;-75
2021/11/01 06:26:34;;;;;;;;;;;10.80;95.60;;;;;;4343051;33;20374;-74
2021/11/01 06:29:07;;;;;;;;;;;10.80;95.60;;;;;;4329328;33;41933;-74
2021/11/01 06:31:46;;;;;;;;;;;10.80;95.60;;;;;;4318550;33;20009;-75
2021/11/01 06:51:55;;;;;;;;;;;10.80;95.70;;;;;;4319019;33;20077;-76
2021/11/01 06:54:38;;;;;;;;;;;10.80;95.70;;;;;;4317825;33;20006;-75
2021/11/01 07:17:01;;;;;;;;;;;10.80;95.70;;;;;;4318026;33;20008;-76
2021/11/01 08:22:37;;;;;;;;;;;11.10;95.50;;;;;;4332922;33;20070;-76
2021/11/01 08:25:33;;;;;;;;;;;11.10;95.40;;;;;;4330700;33;35076;-77
2021/11/01 08:48:02;;;;;;;;;;;11.10;95.30;;;;;;4331785;33;20551;-76
2021/11/01 09:07:41;;;;;;;;;;;11.10;95.10;;;;;;4333055;33;20891;-76
2021/11/01 09:26:37;;;;;;;;;;;11.20;94.90;;;;;;4346767;33;20009;-76
2021/11/01 09:38:03;;;;;;;;;;;11.20;94.80;;;;;;4332833;33;20027;-76
2021/11/01 09:43:24;;;;;;;;;;;11.30;94.80;;;;;;4331989;33;27753;-76
2021/11/01 09:46:01;;;;;;;;;;;11.30;94.70;;;;;;4344737;33;30810;-76
2021/11/01 09:48:40;;;;;;;;;;;11.30;94.60;;;;;;4345463;33;20012;-76
2021/11/01 09:51:22;;;;;;;;;;;11.30;94.60;;;;;;4345658;33;20355;-76
2021/11/01 09:53:55;;;;;;;;;;;11.40;94.60;;;;;;4332524;33;20001;-75
2021/11/01 09:56:55;;;;;;;;;;;11.40;94.60;;;;;;4332195;33;37952;-76
2021/11/01 09:59:28;;;;;;;;;;;11.40;94.40;;;;;;4332972;33;20382;-76
2021/11/01 10:02:04;;;;;;;;;;;11.50;94.60;;;;;;4332921;33;20009;-77
2021/11/01 10:04:43;;;;;;;;;;;11.60;94.60;;;;;;4345512;33;20001;-76
2021/11/01 10:07:19;;;;;;;;;;;11.60;94.40;;;;;;4345095;33;20426;-75
2021/11/01 10:09:55;;;;;;;;;;;11.70;94.40;;;;;;4345685;33;20046;-77
2021/11/01 10:12:34;;;;;;;;;;;11.70;94.30;;;;;;4333011;33;20028;-77
2021/11/01 10:18:05;;;;;;;;;;;11.70;94.40;;;;;;4332847;33;20407;-77
2021/11/01 10:20:45;;;;;;;;;;;11.80;94.20;;;;;;4332817;33;20005;-77
2021/11/01 10:23:30;;;;;;;;;;;11.80;94.20;;;;;;4332967;33;20009;-76
2021/11/01 10:26:14;;;;;;;;;;;11.90;94.20;;;;;;4332833;33;20075;-76
2021/11/01 10:28:47;;;;;;;;;;;12.00;94.20;;;;;;4345423;33;20023;-76
2021/11/01 10:31:23;;;;;;;;;;;12.00;93.90;;;;;;4345528;33;20074;-77
2021/11/01 10:34:12;;;;;;;;;;;12.00;93.80;;;;;;4348905;33;20017;-76
2021/11/01 10:36:50;;;;;;;;;;;12.10;93.80;;;;;;4334886;33;26623;-76
2021/11/01 10:39:24;;;;;;;;;;;12.10;93.90;;;;;;4335526;33;20005;-76
2021/11/01 10:42:18;;;;;;;;;;;12.20;94.00;;;;;;4348039;33;20065;-77
2021/11/01 11:13:19;;;;;;;;;;;12.30;93.50;;;;;;4346084;33;40034;-77
2021/11/01 11:15:46;;;;;;;;;;;12.40;93.70;;;;;;4333738;33;20016;-77
2021/11/01 11:21:28;;;;;;;;;;;12.40;93.40;;;;;;4334559;33;19998;-77
2021/11/01 11:30:25;;;;;;;;;;;12.40;93.30;;;;;;4347392;33;20057;-77
2021/11/01 11:33:13;;;;;;;;;;;12.50;93.20;;;;;;4347342;33;20010;-77
2021/11/01 11:39:34;;;;;;;;;;;12.50;93.10;;;;;;4348288;33;20001;-77
2021/11/01 11:49:35;;;;;;;;;;;12.40;93.00;;;;;;4346885;33;42074;-77
2021/11/01 11:52:11;;;;;;;;;;;12.40;93.10;;;;;;4334412;33;20002;-77
2021/11/01 11:54:48;;;;;;;;;;;12.40;93.20;;;;;;4347932;33;20019;-77
2021/11/01 11:57:29;;;;;;;;;;;12.40;93.10;;;;;;4346510;33;20052;-77
2021/11/01 11:59:57;;;;;;;;;;;12.40;93.00;;;;;;4334426;33;20345;-77
2021/11/01 12:02:38;;;;;;;;;;;12.40;92.90;;;;;;4347458;33;20422;-77
2021/11/01 12:05:27;;;;;;;;;;;12.40;93.00;;;;;;4346761;33;33009;-77
2021/11/01 12:08:18;;;;;;;;;;;12.30;93.10;;;;;;4345714;33;44458;-77
2021/11/01 12:19:17;;;;;;;;;;;12.50;92.90;;;;;;4329317;33;35804;-78
2021/11/01 12:21:45;;;;;;;;;;;12.60;92.70;;;;;;4343349;33;43942;-78
2021/11/01 12:24:19;;;;;;;;;;;12.60;92.80;;;;;;4346384;33;43585;-77
2021/11/01 12:26:59;;;;;;;;;;;12.60;92.80;;;;;;4345276;33;43630;-77
2021/11/01 12:29:26;;;;;;;;;;;12.70;92.50;;;;;;4347349;33;20005;-77
2021/11/01 12:32:01;;;;;;;;;;;12.80;92.60;;;;;;4345986;33;42869;-77
2021/11/01 12:34:46;;;;;;;;;;;12.80;92.70;;;;;;4346369;33;44134;-77
2021/11/01 12:37:26;;;;;;;;;;;12.90;92.50;;;;;;4346591;33;30982;-77
2021/11/01 12:40:05;;;;;;;;;;;12.90;92.30;;;;;;4333436;33;20283;-77
2021/11/01 12:42:47;;;;;;;;;;;12.90;92.30;;;;;;4346109;33;33333;-77
2021/11/01 12:48:21;;;;;;;;;;;13.00;92.20;;;;;;4346404;33;30264;-78
2021/11/01 12:59:40;;;;;;;;;;;13.20;91.90;;;;;;4344539;33;41041;-77
2021/11/01 13:02:15;;;;;;;;;;;13.20;91.50;;;;;;4332995;33;20327;-77
2021/11/01 13:04:44;;;;;;;;;;;13.20;91.40;;;;;;4346768;33;20012;-77
2021/11/01 13:09:51;;;;;;;;;;;13.20;91.20;;;;;;4333048;33;20006;-78
2021/11/01 13:12:39;;;;;;;;;;;13.30;91.40;;;;;;4333602;33;20466;-77
2021/11/01 13:17:51;;;;;;;;;;;13.30;91.00;;;;;;4345566;33;20429;-77
2021/11/01 13:18:11;;;;;;;;;;;13.20;91.30;;;;;;4346964;33;20060;-77
2021/11/01 13:20:48;;;;;;;;;;;13.30;91.30;;;;;;4346909;33;20005;-77
2021/11/01 13:23:16;;;;;;;;;;;13.30;91.40;;;;;;4333235;33;20034;-77
2021/11/01 13:25:50;;;;;;;;;;;13.30;90.80;;;;;;4333136;33;20030;-78
2021/11/01 13:36:39;;;;;;;;;;;13.40;91.20;;;;;;4345472;33;19998;-77
2021/11/01 13:39:08;;;;;;;;;;;13.50;91.20;;;;;;4345850;33;20068;-78
2021/11/01 13:41:44;;;;;;;;;;;13.50;91.10;;;;;;4346341;33;20006;-78
2021/11/01 13:44:19;;;;;;;;;;;13.50;91.10;;;;;;4345714;33;20023;-78
2021/11/01 13:46:48;;;;;;;;;;;13.50;90.90;;;;;;4332917;33;20000;-77
2021/11/01 13:49:16;;;;;;;;;;;13.50;91.10;;;;;;4345787;33;20057;-77
2021/11/01 13:51:50;;;;;;;;;;;13.50;90.90;;;;;;4332674;33;20444;-77
2021/11/01 13:56:54;;;;;;;;;;;13.50;90.90;;;;;;4345570;33;35903;-78
2021/11/01 14:16:11;;;;;;;;;;;13.70;90.80;;;;;;4348715;33;20389;-77
2021/11/01 15:15:38;;;;;;;;;;;13.70;90.60;;;;;;4347225;33;31869;-77
2021/11/01 15:23:34;;;;;;;;;;;13.70;90.70;;;;;;4346123;33;31325;-77
2021/11/01 16:20:23;;;;;;;;;;;13.40;90.50;;;;;;4346703;33;20032;-77
2021/11/01 16:23:02;;;;;;;;;;;13.40;90.60;;;;;;4344650;32;21756;-78
2021/11/01 16:25:30;;;;;;;;;;;13.40;90.70;;;;;;4347234;33;20076;-77
2021/11/01 16:27:57;;;;;;;;;;;13.40;90.70;;;;;;4347039;33;20019;-77
2021/11/01 16:30:26;;;;;;;;;;;13.40;90.70;;;;;;4346435;33;20010;-77
2021/11/01 16:32:59;;;;;;;;;;;13.40;90.70;;;;;;4333550;33;20304;-77
2021/11/01 16:35:33;;;;;;;;;;;13.40;90.70;;;;;;4346121;33;19997;-77
2021/11/01 16:38:12;;;;;;;;;;;13.40;90.70;;;;;;4347112;33;20080;-78
2021/11/01 16:40:41;;;;;;;;;;;13.40;90.70;;;;;;4347433;33;20486;-77
2021/11/01 16:43:16;;;;;;;;;;;13.40;90.80;;;;;;4333510;33;20005;-77
2021/11/01 16:45:46;;;;;;;;;;;13.40;90.70;;;;;;4346139;33;20000;-77
2021/11/01 16:48:13;;;;;;;;;;;13.40;90.70;;;;;;4346123;33;36547;-78
2021/11/01 16:50:41;;;;;;;;;;;13.40;90.70;;;;;;4346213;33;40355;-77
2021/11/01 16:53:09;;;;;;;;;;;13.40;90.70;;;;;;4332115;33;45245;-77
2021/11/01 16:55:40;;;;;;;;;;;13.40;90.70;;;;;;4345594;33;38656;-77
2021/11/01 16:58:17;;;;;;;;;;;13.40;90.70;;;;;;4345069;33;41920;-77
2021/11/01 17:00:56;;;;;;;;;;;13.40;90.70;;;;;;4346158;33;20013;-78
2021/11/01 17:03:46;;;;;;;;;;;13.30;90.80;;;;;;4346683;33;20415;-77
2021/11/01 17:23:11;;;;;;;;;;;13.30;90.80;;;;;;4345775;33;41434;-77
2021/11/01 18:43:19;;;;;;;;;;;12.60;91.00;;;;;;4345625;33;24033;-78
2021/11/01 18:51:06;;;;;;;;;;;12.50;91.10;;;;;;4345153;33;43068;-77
2021/11/01 18:53:34;;;;;;;;;;;12.50;91.00;;;;;;4345629;33;30516;-77
2021/11/01 18:56:03;;;;;;;;;;;12.50;91.00;;;;;;4347355;33;20366;-77
2021/11/01 18:58:33;;;;;;;;;;;12.50;90.90;;;;;;4348832;33;20080;-77
2021/11/01 19:01:09;;;;;;;;;;;12.50;90.90;;;;;;4648024;27;20030;31
2021/11/01 19:03:46;;;;;;;;;;;12.40;90.90;;;;;;4330981;33;30905;-77
2021/11/01 19:15:20;;;;;;;;;;;12.40;90.90;;;;;;4320381;33;20013;-76
2021/11/01 20:07:23;;;;;;;;;;;12.40;90.90;;;;;;4332791;33;20383;-76
2021/11/01 21:24:34;;;;;;;;;;;12.10;91.50;;;;;;4331561;33;20362;-76
2021/11/01 21:27:09;;;;;;;;;;;12.10;91.90;;;;;;4332032;33;20010;-75
2021/11/01 21:29:46;;;;;;;;;;;12.10;91.60;;;;;;4318684;33;20061;-76
2021/11/01 21:32:18;;;;;;;;;;;12.10;91.60;;;;;;4332058;33;20001;-76
2021/11/01 21:34:59;;;;;;;;;;;12.10;91.60;;;;;;4305470;33;37916;-76
2021/11/01 21:37:34;;;;;;;;;;;12.00;91.60;;;;;;4331211;33;36030;-76
2021/11/01 21:40:03;;;;;;;;;;;12.10;91.70;;;;;;4331265;33;29640;-75
2021/11/01 21:42:31;;;;;;;;;;;12.00;91.60;;;;;;4330512;33;35875;-76
2021/11/01 21:45:07;;;;;;;;;;;12.00;91.70;;;;;;4330644;33;20005;-75
2021/11/01 21:47:45;;;;;;;;;;;12.00;91.70;;;;;;4332015;33;20057;-75
2021/11/01 21:50:24;;;;;;;;;;;11.90;91.70;;;;;;4318376;33;20454;-75
2021/11/01 21:53:10;;;;;;;;;;;11.90;91.70;;;;;;4318154;33;19994;-76
2021/11/01 21:55:45;;;;;;;;;;;11.90;91.70;;;;;;4332369;33;20044;-76
2021/11/01 21:58:34;;;;;;;;;;;11.90;91.80;;;;;;4306647;33;20014;-76
2021/11/01 22:24:21;;;;;;;;;;;11.60;91.90;;;;;;4318551;33;20065;-75
2021/11/01 22:33:06;;;;;;;;;;;11.60;92.00;;;;;;4334261;33;20379;-75
2021/11/01 22:42:29;;;;;;;;;;;11.50;92.00;;;;;;4303364;33;20412;-75
2021/11/01 22:44:56;;;;;;;;;;;11.50;92.00;;;;;;4300390;33;20534;-75
2021/11/01 22:56:23;;;;;;;;;;;11.40;92.20;;;;;;4320387;33;19994;-76
2021/11/01 22:59:02;;;;;;;;;;;11.30;92.20;;;;;;4310599;33;41234;-75
2021/11/01 23:01:40;;;;;;;;;;;11.30;92.20;;;;;;4319325;33;31957;-75
2021/11/01 23:32:42;;;;;;;;;;;11.10;92.40;;;;;;4320568;33;20065;-76
2021/11/01 23:35:15;;;;;;;;;;;11.00;92.40;;;;;;4332620;33;39438;-75
2021/11/01 23:37:50;;;;;;;;;;;11.00;92.40;;;;;;4319276;33;41444;-75
2021/11/01 23:40:26;;;;;;;;;;;11.00;92.30;;;;;;4333008;33;20013;-76
2021/11/01 23:43:06;;;;;;;;;;;11.00;92.30;;;;;;4333548;33;20024;-76
2021/11/01 23:45:39;;;;;;;;;;;11.00;92.40;;;;;;4333089;33;20427;-75
2021/11/01 23:48:13;;;;;;;;;;;11.00;92.40;;;;;;4332016;33;43641;-75
2021/11/01 23:50:48;;;;;;;;;;;11.00;92.40;;;;;;4320059;33;20073;-75
2021/11/01 23:56:17;;;;;;;;;;;11.00;92.40;;;;;;4318709;33;46768;-75
2021/11/01 23:58:53;;;;;;;;;;;11.00;92.40;;;;;;4333264;33;20010;-75
